createdAt,value
2023-05-13T00:00:16.326Z,1.92
2023-05-13T00:02:43.161Z,1.68
2023-05-13T00:05:10.067Z,1.69
2023-05-13T00:07:36.874Z,1.69
2023-05-13T00:10:03.747Z,1.79
2023-05-13T00:12:30.583Z,1.56
2023-05-13T00:14:57.374Z,1.84
2023-05-13T00:17:24.128Z,1.73
2023-05-13T00:19:50.946Z,1.74
2023-05-13T00:22:17.690Z,1.89
2023-05-13T00:24:44.452Z,1.61
2023-05-13T00:27:11.170Z,1.62
2023-05-13T00:29:37.933Z,1.60
2023-05-13T00:32:05.076Z,1.66
2023-05-13T00:34:31.914Z,1.67
2023-05-13T00:36:58.694Z,1.72
2023-05-13T00:39:25.510Z,1.73
2023-05-13T00:41:52.221Z,1.49
2023-05-13T00:44:18.924Z,1.73
2023-05-13T00:46:45.695Z,1.72
2023-05-13T00:49:12.478Z,1.58
2023-05-13T00:51:39.284Z,1.49
2023-05-13T00:54:06.093Z,1.64
2023-05-13T00:56:32.902Z,1.54
2023-05-13T00:58:59.589Z,1.69
2023-05-13T01:01:30.808Z,1.48
2023-05-13T01:04:48.025Z,1.44
2023-05-13T01:07:31.199Z,1.50
2023-05-13T01:10:00.989Z,1.66
2023-05-13T01:12:33.828Z,1.62
2023-05-13T01:15:07.524Z,1.68
2023-05-13T01:17:40.264Z,1.54
2023-05-13T01:20:07.673Z,1.57
2023-05-13T01:22:34.374Z,1.62
2023-05-13T01:25:01.147Z,1.56
2023-05-13T01:27:27.985Z,1.53
2023-05-13T01:29:54.913Z,1.58
2023-05-13T01:32:22.026Z,1.65
2023-05-13T01:34:48.858Z,1.47
2023-05-13T01:37:15.483Z,1.52
2023-05-13T01:39:42.253Z,1.70
2023-05-13T01:42:09.020Z,1.64
2023-05-13T01:44:35.756Z,1.51
2023-05-13T01:47:02.485Z,1.38
2023-05-13T01:49:29.171Z,1.57
2023-05-13T01:51:55.918Z,1.47
2023-05-13T01:54:22.631Z,1.53
2023-05-13T01:56:49.269Z,1.55
2023-05-13T01:59:16.013Z,1.58
2023-05-13T02:01:42.751Z,1.57
2023-05-13T02:04:09.573Z,1.54
2023-05-13T02:06:36.327Z,1.53
2023-05-13T02:09:03.009Z,1.63
2023-05-13T02:11:29.730Z,1.60
2023-05-13T02:13:56.440Z,1.82
2023-05-13T02:16:23.330Z,1.67
2023-05-13T02:18:50.212Z,1.76
2023-05-13T02:21:16.979Z,1.82
2023-05-13T02:23:43.709Z,1.56
2023-05-13T02:26:10.381Z,1.71
2023-05-13T02:28:37.205Z,1.68
2023-05-13T02:31:03.990Z,1.60
2023-05-13T02:33:30.759Z,1.80
2023-05-13T02:35:57.533Z,1.78
2023-05-13T02:38:24.352Z,1.69
2023-05-13T02:40:51.120Z,1.65
2023-05-13T02:43:17.848Z,1.65
2023-05-13T02:45:44.566Z,1.65
2023-05-13T02:48:11.328Z,1.67
2023-05-13T02:50:38.102Z,1.57
2023-05-13T02:53:04.910Z,1.65
2023-05-13T02:55:31.689Z,1.48
2023-05-13T02:57:58.501Z,1.59
2023-05-13T03:00:25.429Z,1.52
2023-05-13T03:02:52.253Z,1.48
2023-05-13T03:05:19.084Z,1.57
2023-05-13T03:07:45.928Z,1.61
2023-05-13T03:10:13.270Z,1.41
2023-05-13T03:12:40.070Z,1.58
2023-05-13T03:15:07.344Z,1.75
2023-05-13T03:17:34.019Z,1.50
2023-05-13T03:20:00.745Z,1.52
2023-05-13T03:22:27.560Z,1.66
2023-05-13T03:24:54.319Z,1.60
2023-05-13T03:27:21.015Z,1.54
2023-05-13T03:29:47.768Z,1.49
2023-05-13T03:32:14.530Z,1.68
2023-05-13T03:34:41.319Z,1.68
2023-05-13T03:37:08.101Z,1.59
2023-05-13T03:39:34.855Z,1.49
2023-05-13T03:42:01.720Z,1.53
2023-05-13T03:44:28.480Z,1.56
2023-05-13T03:46:55.301Z,1.55
2023-05-13T03:49:22.059Z,1.40
2023-05-13T03:51:48.800Z,1.47
2023-05-13T03:54:15.596Z,1.58
2023-05-13T03:56:42.328Z,2.69
2023-05-13T03:59:09.010Z,2.20
2023-05-13T04:01:36.143Z,1.51
2023-05-13T04:04:02.925Z,1.61
2023-05-13T04:06:29.712Z,1.70
2023-05-13T04:08:56.475Z,1.50
2023-05-13T04:11:23.172Z,1.68
2023-05-13T04:13:49.942Z,1.53
2023-05-13T04:16:16.689Z,1.57
2023-05-13T04:18:43.533Z,1.60
2023-05-13T04:21:10.440Z,1.57
2023-05-13T04:23:37.212Z,1.79
2023-05-13T04:26:03.924Z,1.59
2023-05-13T04:28:30.609Z,1.58
2023-05-13T04:30:57.436Z,1.55
2023-05-13T04:33:24.145Z,1.53
2023-05-13T04:35:50.880Z,1.49
2023-05-13T04:38:17.604Z,1.49
2023-05-13T04:40:44.571Z,1.49
2023-05-13T04:43:12.057Z,1.48
2023-05-13T04:45:39.230Z,1.42
2023-05-13T04:48:06.409Z,1.57
2023-05-13T04:50:33.257Z,1.47
2023-05-13T04:53:00.378Z,1.49
2023-05-13T04:55:27.857Z,1.56
2023-05-13T04:57:54.815Z,1.49
2023-05-13T05:00:21.829Z,1.56
2023-05-13T05:02:48.894Z,1.61
2023-05-13T05:05:18.245Z,1.56
2023-05-13T05:07:45.373Z,1.48
2023-05-13T05:10:12.106Z,1.44
2023-05-13T05:12:39.461Z,1.46
2023-05-13T05:15:06.888Z,1.53
2023-05-13T05:17:33.777Z,1.49
2023-05-13T05:20:00.610Z,1.54
2023-05-13T05:22:27.476Z,1.54
2023-05-13T05:24:54.268Z,1.30
2023-05-13T05:27:21.027Z,1.59
2023-05-13T05:29:47.848Z,1.44
2023-05-13T05:32:14.653Z,1.43
2023-05-13T05:34:41.423Z,1.57
2023-05-13T05:37:08.160Z,1.32
2023-05-13T05:39:34.918Z,1.62
2023-05-13T05:42:01.730Z,1.44
2023-05-13T05:44:28.483Z,1.46
2023-05-13T05:46:55.190Z,1.41
2023-05-13T05:49:21.910Z,1.46
2023-05-13T05:51:48.765Z,1.40
2023-05-13T05:54:15.476Z,1.61
2023-05-13T05:56:42.184Z,1.35
2023-05-13T05:59:08.926Z,1.36
2023-05-13T06:01:35.705Z,1.36
2023-05-13T06:04:05.134Z,1.46
2023-05-13T06:06:32.241Z,1.36
2023-05-13T06:08:59.086Z,1.57
2023-05-13T06:11:25.946Z,1.38
2023-05-13T06:13:53.961Z,1.52
2023-05-13T06:16:20.907Z,1.49
2023-05-13T06:18:47.825Z,1.58
2023-05-13T06:21:14.751Z,1.42
2023-05-13T06:23:41.495Z,1.40
2023-05-13T06:26:08.308Z,1.37
2023-05-13T06:28:35.101Z,1.43
2023-05-13T06:31:01.960Z,1.43
2023-05-13T06:33:28.789Z,1.34
2023-05-13T06:35:55.571Z,1.36
2023-05-13T06:38:22.356Z,1.59
2023-05-13T06:40:49.194Z,1.39
2023-05-13T06:43:15.942Z,1.43
2023-05-13T06:45:42.794Z,1.38
2023-05-13T06:48:09.616Z,1.46
2023-05-13T06:50:36.525Z,1.39
2023-05-13T06:53:03.269Z,1.38
2023-05-13T06:55:30.090Z,1.30
2023-05-13T06:57:56.916Z,1.52
2023-05-13T07:00:24.193Z,1.39
2023-05-13T07:02:56.163Z,1.34
2023-05-13T07:05:23.184Z,1.36
2023-05-13T07:07:49.905Z,1.31
2023-05-13T07:10:16.885Z,1.26
2023-05-13T07:12:43.644Z,1.33
2023-05-13T07:15:10.720Z,1.35
2023-05-13T07:17:37.580Z,1.16
2023-05-13T07:20:04.711Z,1.61
2023-05-13T07:22:31.444Z,2.29
2023-05-13T07:24:58.258Z,2.01
2023-05-13T07:27:25.122Z,1.80
2023-05-13T07:29:51.870Z,1.73
2023-05-13T07:32:18.749Z,1.86
2023-05-13T07:34:45.615Z,1.89
2023-05-13T07:37:12.415Z,1.96
2023-05-13T07:39:39.165Z,2.11
2023-05-13T07:42:06.242Z,2.02
2023-05-13T07:44:33.104Z,1.98
2023-05-13T07:46:59.939Z,1.98
2023-05-13T07:49:26.869Z,1.99
2023-05-13T07:51:53.679Z,1.95
2023-05-13T07:54:20.474Z,2.00
2023-05-13T07:56:47.273Z,2.24
2023-05-13T07:59:14.203Z,2.02
2023-05-13T08:01:41.917Z,2.11
2023-05-13T08:04:08.899Z,2.06
2023-05-13T08:06:37.107Z,1.77
2023-05-13T08:09:03.980Z,1.94
2023-05-13T08:11:30.780Z,2.16
2023-05-13T08:13:57.710Z,2.19
2023-05-13T08:16:24.461Z,2.13
2023-05-13T08:18:51.340Z,2.09
2023-05-13T08:21:18.074Z,2.39
2023-05-13T08:23:46.142Z,2.26
2023-05-13T08:40:01.358Z,2.22
2023-05-13T10:39:46.713Z,2.05
2023-05-13T12:21:16.681Z,2.66
2023-05-13T12:23:43.481Z,2.50
2023-05-13T12:26:10.909Z,2.87
2023-05-13T12:28:37.741Z,2.77
2023-05-13T12:31:05.209Z,2.70
2023-05-13T12:33:32.838Z,2.55
2023-05-13T12:36:20.919Z,2.46
2023-05-13T12:39:03.755Z,2.67
2023-05-13T12:41:32.116Z,2.67
2023-05-13T12:44:03.726Z,2.64
2023-05-13T12:46:30.654Z,2.34
2023-05-13T12:49:01.227Z,2.36
2023-05-13T12:51:28.083Z,2.38
2023-05-13T12:53:55.044Z,2.14
2023-05-13T12:56:24.909Z,2.52
2023-05-13T12:58:54.693Z,2.36
2023-05-13T13:01:21.632Z,2.51
2023-05-13T13:03:48.740Z,2.34
2023-05-13T13:06:15.682Z,2.40
2023-05-13T13:08:42.470Z,2.45
2023-05-13T13:11:09.371Z,2.54
2023-05-13T13:13:38.753Z,2.27
2023-05-13T13:16:06.405Z,2.33
2023-05-13T13:18:33.307Z,2.44
2023-05-13T13:21:00.220Z,2.36
2023-05-13T13:23:26.997Z,2.34
2023-05-13T13:25:53.807Z,2.48
2023-05-13T13:28:20.575Z,2.31
2023-05-13T13:30:47.558Z,2.06
2023-05-13T13:33:15.053Z,2.53
2023-05-13T13:35:43.388Z,2.29
2023-05-13T13:38:10.441Z,2.23
2023-05-13T13:40:37.180Z,2.32
2023-05-13T13:43:04.998Z,2.23
2023-05-13T13:45:31.877Z,2.35
2023-05-13T13:47:59.185Z,2.17
2023-05-13T13:50:26.241Z,2.21
2023-05-13T13:52:53.096Z,2.16
2023-05-13T13:55:20.864Z,2.18
2023-05-13T13:57:47.700Z,2.26
2023-05-13T14:00:15.571Z,2.35
2023-05-13T14:02:43.147Z,2.35
2023-05-13T14:05:10.859Z,2.11
2023-05-13T14:07:37.634Z,2.21
2023-05-13T14:10:05.231Z,2.24
2023-05-13T14:12:32.011Z,2.27
